sensor_id;sensor_type;location;lat;lon;timestamp;temperature;humidity
5055;DHT22;13829;48.990;8.346;2023-06-19T00:00:29;21.30;99.90
5055;DHT22;13829;48.990;8.346;2023-06-19T00:02:57;21.50;99.90
5055;DHT22;13829;48.990;8.346;2023-06-19T00:05:25;21.30;99.90
5055;DHT22;13829;48.990;8.346;2023-06-19T00:07:52;21.40;99.90
5055;DHT22;13829;48.990;8.346;2023-06-19T00:10:19;21.50;99.90
5055;DHT22;13829;48.990;8.346;2023-06-19T00:12:46;21.70;99.90
5055;DHT22;13829;48.990;8.346;2023-06-19T00:15:14;21.80;99.90
5055;DHT22;13829;48.990;8.346;2023-06-19T00:17:41;21.90;99.90
5055;DHT22;13829;48.990;8.346;2023-06-19T00:20:10;21.90;99.50
5055;DHT22;13829;48.990;8.346;2023-06-19T00:22:39;22.10;99.20
5055;DHT22;13829;48.990;8.346;2023-06-19T00:25:06;22.20;98.90
5055;DHT22;13829;48.990;8.346;2023-06-19T00:27:34;22.30;98.70
5055;DHT22;13829;48.990;8.346;2023-06-19T00:30:01;22.40;98.60
5055;DHT22;13829;48.990;8.346;2023-06-19T00:32:28;22.40;98.30
5055;DHT22;13829;48.990;8.346;2023-06-19T00:34:55;22.40;98.30
5055;DHT22;13829;48.990;8.346;2023-06-19T00:37:24;22.50;98.10
5055;DHT22;13829;48.990;8.346;2023-06-19T00:39:51;22.50;97.80
5055;DHT22;13829;48.990;8.346;2023-06-19T00:42:18;22.50;97.90
5055;DHT22;13829;48.990;8.346;2023-06-19T00:44:44;22.50;97.80
5055;DHT22;13829;48.990;8.346;2023-06-19T00:47:11;22.70;98.10
5055;DHT22;13829;48.990;8.346;2023-06-19T00:49:39;22.50;98.10
5055;DHT22;13829;48.990;8.346;2023-06-19T00:52:07;22.40;98.00
5055;DHT22;13829;48.990;8.346;2023-06-19T00:54:35;22.50;98.20
5055;DHT22;13829;48.990;8.346;2023-06-19T00:57:03;22.40;98.30
5055;DHT22;13829;48.990;8.346;2023-06-19T00:59:31;22.40;98.40
5055;DHT22;13829;48.990;8.346;2023-06-19T01:01:58;22.40;98.40
5055;DHT22;13829;48.990;8.346;2023-06-19T01:04:26;22.40;98.70
5055;DHT22;13829;48.990;8.346;2023-06-19T01:06:54;22.40;98.80
5055;DHT22;13829;48.990;8.346;2023-06-19T01:09:27;22.40;98.80
5055;DHT22;13829;48.990;8.346;2023-06-19T01:12:03;22.40;99.20
5055;DHT22;13829;48.990;8.346;2023-06-19T01:14:38;22.60;99.90
5055;DHT22;13829;48.990;8.346;2023-06-19T01:17:13;22.40;99.90
5055;DHT22;13829;48.990;8.346;2023-06-19T01:19:41;22.30;99.90
5055;DHT22;13829;48.990;8.346;2023-06-19T01:22:10;22.30;99.90
5055;DHT22;13829;48.990;8.346;2023-06-19T01:24:36;22.20;99.90
5055;DHT22;13829;48.990;8.346;2023-06-19T01:27:04;22.30;99.90
5055;DHT22;13829;48.990;8.346;2023-06-19T01:29:31;22.00;99.90
5055;DHT22;13829;48.990;8.346;2023-06-19T01:32:02;21.90;99.90
5055;DHT22;13829;48.990;8.346;2023-06-19T01:34:36;21.80;99.90
5055;DHT22;13829;48.990;8.346;2023-06-19T01:37:05;21.70;99.90
5055;DHT22;13829;48.990;8.346;2023-06-19T01:39:35;21.60;99.90
5055;DHT22;13829;48.990;8.346;2023-06-19T01:42:04;21.50;99.90
5055;DHT22;13829;48.990;8.346;2023-06-19T01:44:35;21.40;99.90
5055;DHT22;13829;48.990;8.346;2023-06-19T01:47:08;21.10;99.90
5055;DHT22;13829;48.990;8.346;2023-06-19T01:49:36;21.00;99.90
5055;DHT22;13829;48.990;8.346;2023-06-19T01:52:04;20.80;99.90
5055;DHT22;13829;48.990;8.346;2023-06-19T01:54:32;20.70;99.90
5055;DHT22;13829;48.990;8.346;2023-06-19T01:57:00;20.60;99.90
5055;DHT22;13829;48.990;8.346;2023-06-19T01:59:27;20.60;99.90
5055;DHT22;13829;48.990;8.346;2023-06-19T02:01:54;20.50;99.90
5055;DHT22;13829;48.990;8.346;2023-06-19T02:04:21;20.40;99.90
5055;DHT22;13829;48.990;8.346;2023-06-19T02:06:48;20.50;99.90
5055;DHT22;13829;48.990;8.346;2023-06-19T02:09:15;20.30;99.90
5055;DHT22;13829;48.990;8.346;2023-06-19T02:11:42;20.30;99.90
5055;DHT22;13829;48.990;8.346;2023-06-19T02:14:10;20.20;99.90
5055;DHT22;13829;48.990;8.346;2023-06-19T02:16:37;20.20;99.90
5055;DHT22;13829;48.990;8.346;2023-06-19T02:19:05;20.10;99.90
5055;DHT22;13829;48.990;8.346;2023-06-19T02:21:32;20.30;99.90
5055;DHT22;13829;48.990;8.346;2023-06-19T02:23:59;20.10;99.90
5055;DHT22;13829;48.990;8.346;2023-06-19T02:26:26;20.00;99.90
5055;DHT22;13829;48.990;8.346;2023-06-19T02:28:54;20.00;99.90
5055;DHT22;13829;48.990;8.346;2023-06-19T02:31:23;20.20;99.90
5055;DHT22;13829;48.990;8.346;2023-06-19T02:33:50;20.00;99.90
5055;DHT22;13829;48.990;8.346;2023-06-19T02:36:17;20.00;99.90
5055;DHT22;13829;48.990;8.346;2023-06-19T02:38:45;19.90;99.90
5055;DHT22;13829;48.990;8.346;2023-06-19T02:41:13;20.00;99.90
5055;DHT22;13829;48.990;8.346;2023-06-19T02:43:40;20.00;99.90
5055;DHT22;13829;48.990;8.346;2023-06-19T02:46:07;20.00;99.90
5055;DHT22;13829;48.990;8.346;2023-06-19T02:48:35;20.00;99.90
5055;DHT22;13829;48.990;8.346;2023-06-19T02:51:02;20.00;99.90
5055;DHT22;13829;48.990;8.346;2023-06-19T02:53:29;20.00;99.90
5055;DHT22;13829;48.990;8.346;2023-06-19T02:55:56;20.00;99.90
5055;DHT22;13829;48.990;8.346;2023-06-19T02:58:23;19.90;99.90
5055;DHT22;13829;48.990;8.346;2023-06-19T03:00:52;19.90;99.90
5055;DHT22;13829;48.990;8.346;2023-06-19T03:03:19;19.80;99.90
5055;DHT22;13829;48.990;8.346;2023-06-19T03:05:49;19.80;99.90
5055;DHT22;13829;48.990;8.346;2023-06-19T03:08:16;19.80;99.90
5055;DHT22;13829;48.990;8.346;2023-06-19T03:10:43;19.70;99.90
5055;DHT22;13829;48.990;8.346;2023-06-19T03:13:10;19.80;99.90
5055;DHT22;13829;48.990;8.346;2023-06-19T03:15:37;19.80;99.90
5055;DHT22;13829;48.990;8.346;2023-06-19T03:18:04;19.80;99.90
5055;DHT22;13829;48.990;8.346;2023-06-19T03:20:33;19.80;99.90
5055;DHT22;13829;48.990;8.346;2023-06-19T03:23:02;19.80;99.90
5055;DHT22;13829;48.990;8.346;2023-06-19T03:25:28;19.80;99.90
5055;DHT22;13829;48.990;8.346;2023-06-19T03:28:00;19.70;99.90
5055;DHT22;13829;48.990;8.346;2023-06-19T03:30:27;19.70;99.90
5055;DHT22;13829;48.990;8.346;2023-06-19T03:32:54;19.70;99.90
5055;DHT22;13829;48.990;8.346;2023-06-19T03:35:21;19.70;99.90
5055;DHT22;13829;48.990;8.346;2023-06-19T03:37:48;19.70;99.90
5055;DHT22;13829;48.990;8.346;2023-06-19T03:40:16;19.60;99.90
5055;DHT22;13829;48.990;8.346;2023-06-19T03:42:43;19.60;99.90
5055;DHT22;13829;48.990;8.346;2023-06-19T03:45:10;19.70;99.90
5055;DHT22;13829;48.990;8.346;2023-06-19T03:47:37;19.70;99.90
5055;DHT22;13829;48.990;8.346;2023-06-19T03:50:05;19.70;99.90
5055;DHT22;13829;48.990;8.346;2023-06-19T03:52:35;19.70;99.90
5055;DHT22;13829;48.990;8.346;2023-06-19T03:55:02;19.80;99.90
5055;DHT22;13829;48.990;8.346;2023-06-19T03:57:31;19.70;99.90
5055;DHT22;13829;48.990;8.346;2023-06-19T03:59:58;19.80;99.90
5055;DHT22;13829;48.990;8.346;2023-06-19T04:02:25;19.90;99.90
5055;DHT22;13829;48.990;8.346;2023-06-19T04:04:53;19.90;99.90
5055;DHT22;13829;48.990;8.346;2023-06-19T04:07:20;19.90;99.90
5055;DHT22;13829;48.990;8.346;2023-06-19T04:09:47;20.00;99.90
5055;DHT22;13829;48.990;8.346;2023-06-19T04:12:14;20.00;99.90
5055;DHT22;13829;48.990;8.346;2023-06-19T04:14:42;20.10;99.90
5055;DHT22;13829;48.990;8.346;2023-06-19T04:17:09;20.20;99.90
5055;DHT22;13829;48.990;8.346;2023-06-19T04:19:36;20.20;99.90
5055;DHT22;13829;48.990;8.346;2023-06-19T04:22:03;20.20;99.90
5055;DHT22;13829;48.990;8.346;2023-06-19T04:24:30;20.30;99.90
5055;DHT22;13829;48.990;8.346;2023-06-19T04:26:57;20.40;99.90
5055;DHT22;13829;48.990;8.346;2023-06-19T04:29:24;20.40;99.90
5055;DHT22;13829;48.990;8.346;2023-06-19T04:31:52;20.40;99.90
5055;DHT22;13829;48.990;8.346;2023-06-19T04:34:19;20.40;99.90
5055;DHT22;13829;48.990;8.346;2023-06-19T04:36:47;20.40;99.90
5055;DHT22;13829;48.990;8.346;2023-06-19T04:39:14;20.40;99.90
5055;DHT22;13829;48.990;8.346;2023-06-19T04:41:43;20.50;99.90
5055;DHT22;13829;48.990;8.346;2023-06-19T04:44:10;20.60;99.90
5055;DHT22;13829;48.990;8.346;2023-06-19T04:46:38;20.70;99.90
5055;DHT22;13829;48.990;8.346;2023-06-19T04:49:06;20.70;99.90
5055;DHT22;13829;48.990;8.346;2023-06-19T04:51:34;20.80;99.90
5055;DHT22;13829;48.990;8.346;2023-06-19T04:54:02;20.90;99.90
5055;DHT22;13829;48.990;8.346;2023-06-19T04:56:29;21.00;99.90
5055;DHT22;13829;48.990;8.346;2023-06-19T04:58:56;21.20;99.90
5055;DHT22;13829;48.990;8.346;2023-06-19T05:01:25;21.40;99.90
5055;DHT22;13829;48.990;8.346;2023-06-19T05:03:54;21.30;99.90
5055;DHT22;13829;48.990;8.346;2023-06-19T05:06:24;21.40;99.90
5055;DHT22;13829;48.990;8.346;2023-06-19T05:08:51;21.50;99.90
5055;DHT22;13829;48.990;8.346;2023-06-19T05:11:18;21.40;99.90
5055;DHT22;13829;48.990;8.346;2023-06-19T05:13:45;21.40;99.90
5055;DHT22;13829;48.990;8.346;2023-06-19T05:16:12;21.50;99.90
5055;DHT22;13829;48.990;8.346;2023-06-19T05:18:42;21.60;99.90
5055;DHT22;13829;48.990;8.346;2023-06-19T05:21:09;21.60;99.90
5055;DHT22;13829;48.990;8.346;2023-06-19T05:23:38;21.70;99.90
5055;DHT22;13829;48.990;8.346;2023-06-19T05:26:05;21.90;99.90
5055;DHT22;13829;48.990;8.346;2023-06-19T05:28:32;21.90;99.90
5055;DHT22;13829;48.990;8.346;2023-06-19T05:30:59;22.00;99.90
5055;DHT22;13829;48.990;8.346;2023-06-19T05:33:26;22.10;99.90
5055;DHT22;13829;48.990;8.346;2023-06-19T05:35:53;22.20;99.90
5055;DHT22;13829;48.990;8.346;2023-06-19T05:38:20;22.30;99.90
5055;DHT22;13829;48.990;8.346;2023-06-19T05:40:50;22.40;99.90
5055;DHT22;13829;48.990;8.346;2023-06-19T05:43:17;22.60;99.90
5055;DHT22;13829;48.990;8.346;2023-06-19T05:45:45;22.60;99.90
5055;DHT22;13829;48.990;8.346;2023-06-19T05:48:12;22.70;99.90
5055;DHT22;13829;48.990;8.346;2023-06-19T05:50:39;23.00;99.90
5055;DHT22;13829;48.990;8.346;2023-06-19T05:53:06;22.70;99.90
5055;DHT22;13829;48.990;8.346;2023-06-19T05:55:33;22.90;99.90
5055;DHT22;13829;48.990;8.346;2023-06-19T05:58:01;23.00;99.90
5055;DHT22;13829;48.990;8.346;2023-06-19T06:00:29;23.10;99.90
5055;DHT22;13829;48.990;8.346;2023-06-19T06:02:57;23.20;99.90
5055;DHT22;13829;48.990;8.346;2023-06-19T06:05:26;23.30;99.90
5055;DHT22;13829;48.990;8.346;2023-06-19T06:07:53;23.40;99.90
5055;DHT22;13829;48.990;8.346;2023-06-19T06:10:20;23.40;99.90
5055;DHT22;13829;48.990;8.346;2023-06-19T06:12:48;23.60;99.90
5055;DHT22;13829;48.990;8.346;2023-06-19T06:15:17;23.80;99.90
5055;DHT22;13829;48.990;8.346;2023-06-19T06:17:44;24.30;99.90
5055;DHT22;13829;48.990;8.346;2023-06-19T06:20:11;25.40;99.90
5055;DHT22;13829;48.990;8.346;2023-06-19T06:22:38;26.10;99.90
5055;DHT22;13829;48.990;8.346;2023-06-19T06:25:06;26.50;99.90
5055;DHT22;13829;48.990;8.346;2023-06-19T06:27:33;27.30;99.90
5055;DHT22;13829;48.990;8.346;2023-06-19T06:30:01;28.00;98.50
5055;DHT22;13829;48.990;8.346;2023-06-19T06:32:30;28.90;96.80
5055;DHT22;13829;48.990;8.346;2023-06-19T06:34:57;29.50;95.20
5055;DHT22;13829;48.990;8.346;2023-06-19T06:37:24;30.30;94.50
5055;DHT22;13829;48.990;8.346;2023-06-19T06:39:51;31.20;92.10
5055;DHT22;13829;48.990;8.346;2023-06-19T06:42:18;31.70;90.20
5055;DHT22;13829;48.990;8.346;2023-06-19T06:44:45;32.30;89.70
5055;DHT22;13829;48.990;8.346;2023-06-19T06:47:13;32.60;84.80
5055;DHT22;13829;48.990;8.346;2023-06-19T06:49:41;32.80;83.10
5055;DHT22;13829;48.990;8.346;2023-06-19T06:52:08;33.00;81.40
5055;DHT22;13829;48.990;8.346;2023-06-19T06:54:35;33.30;80.30
5055;DHT22;13829;48.990;8.346;2023-06-19T06:57:02;33.60;79.40
5055;DHT22;13829;48.990;8.346;2023-06-19T06:59:30;33.90;76.60
5055;DHT22;13829;48.990;8.346;2023-06-19T07:01:57;33.80;75.00
5055;DHT22;13829;48.990;8.346;2023-06-19T07:04:24;32.80;76.70
5055;DHT22;13829;48.990;8.346;2023-06-19T07:06:53;31.50;78.80
5055;DHT22;13829;48.990;8.346;2023-06-19T07:09:20;30.20;81.50
5055;DHT22;13829;48.990;8.346;2023-06-19T07:11:47;29.20;84.90
5055;DHT22;13829;48.990;8.346;2023-06-19T07:14:14;28.00;86.80
5055;DHT22;13829;48.990;8.346;2023-06-19T07:16:43;27.20;90.20
5055;DHT22;13829;48.990;8.346;2023-06-19T07:19:11;26.70;91.50
5055;DHT22;13829;48.990;8.346;2023-06-19T07:21:39;26.30;91.90
5055;DHT22;13829;48.990;8.346;2023-06-19T07:24:08;26.00;93.30
5055;DHT22;13829;48.990;8.346;2023-06-19T07:26:35;25.70;93.80
5055;DHT22;13829;48.990;8.346;2023-06-19T07:29:02;25.40;94.50
5055;DHT22;13829;48.990;8.346;2023-06-19T07:31:29;25.20;95.40
5055;DHT22;13829;48.990;8.346;2023-06-19T07:33:56;25.20;96.00
5055;DHT22;13829;48.990;8.346;2023-06-19T07:36:23;25.20;96.40
5055;DHT22;13829;48.990;8.346;2023-06-19T07:38:50;25.10;96.70
5055;DHT22;13829;48.990;8.346;2023-06-19T07:41:19;25.00;97.20
5055;DHT22;13829;48.990;8.346;2023-06-19T07:43:46;24.90;97.60
5055;DHT22;13829;48.990;8.346;2023-06-19T07:46:13;24.80;98.50
5055;DHT22;13829;48.990;8.346;2023-06-19T07:48:40;24.90;98.90
5055;DHT22;13829;48.990;8.346;2023-06-19T07:51:07;25.00;99.10
5055;DHT22;13829;48.990;8.346;2023-06-19T07:53:35;25.20;99.20
5055;DHT22;13829;48.990;8.346;2023-06-19T07:56:02;25.20;99.40
5055;DHT22;13829;48.990;8.346;2023-06-19T07:58:31;25.40;99.20
5055;DHT22;13829;48.990;8.346;2023-06-19T08:00:58;25.60;99.10
5055;DHT22;13829;48.990;8.346;2023-06-19T08:03:25;26.10;99.50
5055;DHT22;13829;48.990;8.346;2023-06-19T08:05:52;27.10;98.20
5055;DHT22;13829;48.990;8.346;2023-06-19T08:08:19;28.40;95.70
5055;DHT22;13829;48.990;8.346;2023-06-19T08:10:46;29.20;94.70
5055;DHT22;13829;48.990;8.346;2023-06-19T08:13:13;30.20;93.50
5055;DHT22;13829;48.990;8.346;2023-06-19T08:15:42;31.00;92.00
5055;DHT22;13829;48.990;8.346;2023-06-19T08:18:10;31.50;89.60
5055;DHT22;13829;48.990;8.346;2023-06-19T08:20:37;31.70;89.00
5055;DHT22;13829;48.990;8.346;2023-06-19T08:23:04;32.10;86.50
5055;DHT22;13829;48.990;8.346;2023-06-19T08:25:30;32.70;85.90
5055;DHT22;13829;48.990;8.346;2023-06-19T08:27:57;33.20;83.80
5055;DHT22;13829;48.990;8.346;2023-06-19T08:30:24;33.70;82.10
5055;DHT22;13829;48.990;8.346;2023-06-19T08:32:53;33.90;80.90
5055;DHT22;13829;48.990;8.346;2023-06-19T08:35:20;34.10;78.50
5055;DHT22;13829;48.990;8.346;2023-06-19T08:37:47;34.30;78.70
5055;DHT22;13829;48.990;8.346;2023-06-19T08:40:13;34.20;77.70
5055;DHT22;13829;48.990;8.346;2023-06-19T08:42:40;34.10;76.90
5055;DHT22;13829;48.990;8.346;2023-06-19T08:45:09;33.90;77.10
5055;DHT22;13829;48.990;8.346;2023-06-19T08:47:36;33.60;76.20
5055;DHT22;13829;48.990;8.346;2023-06-19T08:50:05;33.40;77.90
5055;DHT22;13829;48.990;8.346;2023-06-19T08:52:33;33.00;77.80
5055;DHT22;13829;48.990;8.346;2023-06-19T08:54:59;32.50;78.60
5055;DHT22;13829;48.990;8.346;2023-06-19T08:57:34;31.80;81.30
5055;DHT22;13829;48.990;8.346;2023-06-19T09:00:02;31.80;81.40
5055;DHT22;13829;48.990;8.346;2023-06-19T09:02:42;31.80;80.70
5055;DHT22;13829;48.990;8.346;2023-06-19T09:05:15;31.40;81.70
5055;DHT22;13829;48.990;8.346;2023-06-19T09:07:53;30.90;80.90
5055;DHT22;13829;48.990;8.346;2023-06-19T09:10:30;31.10;83.00
5055;DHT22;13829;48.990;8.346;2023-06-19T09:12:59;31.40;82.80
5055;DHT22;13829;48.990;8.346;2023-06-19T09:15:32;31.60;83.10
5055;DHT22;13829;48.990;8.346;2023-06-19T09:18:08;31.70;84.90
5055;DHT22;13829;48.990;8.346;2023-06-19T09:20:41;31.80;84.00
5055;DHT22;13829;48.990;8.346;2023-06-19T09:23:11;31.90;83.70
5055;DHT22;13829;48.990;8.346;2023-06-19T09:25:45;32.00;82.70
5055;DHT22;13829;48.990;8.346;2023-06-19T09:28:20;31.90;84.30
5055;DHT22;13829;48.990;8.346;2023-06-19T09:30:56;31.80;84.40
5055;DHT22;13829;48.990;8.346;2023-06-19T09:33:25;31.50;82.20
5055;DHT22;13829;48.990;8.346;2023-06-19T09:35:55;31.30;81.90
5055;DHT22;13829;48.990;8.346;2023-06-19T09:38:25;31.30;83.80
5055;DHT22;13829;48.990;8.346;2023-06-19T09:40:55;31.10;82.50
5055;DHT22;13829;48.990;8.346;2023-06-19T09:43:24;31.00;82.30
5055;DHT22;13829;48.990;8.346;2023-06-19T09:45:57;30.90;84.10
5055;DHT22;13829;48.990;8.346;2023-06-19T09:48:27;30.90;85.30
5055;DHT22;13829;48.990;8.346;2023-06-19T09:51:00;30.80;84.00
5055;DHT22;13829;48.990;8.346;2023-06-19T09:53:36;30.80;85.40
5055;DHT22;13829;48.990;8.346;2023-06-19T09:56:04;30.70;83.80
5055;DHT22;13829;48.990;8.346;2023-06-19T09:58:31;30.50;84.20
5055;DHT22;13829;48.990;8.346;2023-06-19T10:01:00;30.40;87.10
5055;DHT22;13829;48.990;8.346;2023-06-19T10:03:31;30.30;86.40
5055;DHT22;13829;48.990;8.346;2023-06-19T10:06:01;30.20;86.60
5055;DHT22;13829;48.990;8.346;2023-06-19T10:08:30;29.80;85.00
5055;DHT22;13829;48.990;8.346;2023-06-19T10:10:58;29.40;85.70
5055;DHT22;13829;48.990;8.346;2023-06-19T10:13:33;29.30;86.40
5055;DHT22;13829;48.990;8.346;2023-06-19T10:16:02;29.20;88.20
5055;DHT22;13829;48.990;8.346;2023-06-19T10:18:29;29.00;87.50
5055;DHT22;13829;48.990;8.346;2023-06-19T10:21:00;28.90;89.20
5055;DHT22;13829;48.990;8.346;2023-06-19T10:23:27;28.90;88.60
5055;DHT22;13829;48.990;8.346;2023-06-19T10:25:58;28.90;89.60
5055;DHT22;13829;48.990;8.346;2023-06-19T10:28:28;29.00;87.90
5055;DHT22;13829;48.990;8.346;2023-06-19T10:30:56;29.00;89.70
5055;DHT22;13829;48.990;8.346;2023-06-19T10:33:26;29.00;88.50
5055;DHT22;13829;48.990;8.346;2023-06-19T10:35:54;29.00;88.10
5055;DHT22;13829;48.990;8.346;2023-06-19T10:38:23;29.10;87.90
5055;DHT22;13829;48.990;8.346;2023-06-19T10:40:49;29.00;88.30
5055;DHT22;13829;48.990;8.346;2023-06-19T10:43:20;28.80;88.60
5055;DHT22;13829;48.990;8.346;2023-06-19T10:45:48;28.80;89.20
5055;DHT22;13829;48.990;8.346;2023-06-19T10:48:19;28.70;88.40
5055;DHT22;13829;48.990;8.346;2023-06-19T10:50:47;28.90;90.90
5055;DHT22;13829;48.990;8.346;2023-06-19T10:53:25;29.20;88.20
5055;DHT22;13829;48.990;8.346;2023-06-19T10:55:55;29.30;88.70
5055;DHT22;13829;48.990;8.346;2023-06-19T10:58:25;29.30;89.90
5055;DHT22;13829;48.990;8.346;2023-06-19T11:00:52;29.50;88.40
5055;DHT22;13829;48.990;8.346;2023-06-19T11:03:20;29.70;90.00
5055;DHT22;13829;48.990;8.346;2023-06-19T11:05:55;29.50;88.20
5055;DHT22;13829;48.990;8.346;2023-06-19T11:08:22;29.40;87.80
5055;DHT22;13829;48.990;8.346;2023-06-19T11:10:50;29.30;87.80
5055;DHT22;13829;48.990;8.346;2023-06-19T11:13:18;29.20;88.30
5055;DHT22;13829;48.990;8.346;2023-06-19T11:15:47;29.20;89.20
5055;DHT22;13829;48.990;8.346;2023-06-19T11:18:16;29.10;88.30
5055;DHT22;13829;48.990;8.346;2023-06-19T11:20:45;29.10;89.50
5055;DHT22;13829;48.990;8.346;2023-06-19T11:23:16;29.10;87.70
5055;DHT22;13829;48.990;8.346;2023-06-19T11:25:50;29.10;87.20
5055;DHT22;13829;48.990;8.346;2023-06-19T11:28:18;28.80;88.80
5055;DHT22;13829;48.990;8.346;2023-06-19T11:30:48;28.70;89.90
5055;DHT22;13829;48.990;8.346;2023-06-19T11:33:16;28.50;88.60
5055;DHT22;13829;48.990;8.346;2023-06-19T11:35:48;28.50;90.00
5055;DHT22;13829;48.990;8.346;2023-06-19T11:38:19;28.50;89.10
5055;DHT22;13829;48.990;8.346;2023-06-19T11:40:47;28.60;89.30
5055;DHT22;13829;48.990;8.346;2023-06-19T11:43:24;28.60;88.90
5055;DHT22;13829;48.990;8.346;2023-06-19T11:46:01;28.70;89.20
5055;DHT22;13829;48.990;8.346;2023-06-19T11:48:28;28.80;88.00
5055;DHT22;13829;48.990;8.346;2023-06-19T11:50:55;29.00;89.70
5055;DHT22;13829;48.990;8.346;2023-06-19T11:53:25;29.20;87.80
5055;DHT22;13829;48.990;8.346;2023-06-19T11:55:52;29.30;86.90
5055;DHT22;13829;48.990;8.346;2023-06-19T11:58:19;29.50;87.20
5055;DHT22;13829;48.990;8.346;2023-06-19T12:00:46;29.40;86.10
5055;DHT22;13829;48.990;8.346;2023-06-19T12:03:14;29.40;86.50
5055;DHT22;13829;48.990;8.346;2023-06-19T12:05:41;29.40;86.60
5055;DHT22;13829;48.990;8.346;2023-06-19T12:08:08;29.50;86.50
5055;DHT22;13829;48.990;8.346;2023-06-19T12:10:36;29.50;86.20
5055;DHT22;13829;48.990;8.346;2023-06-19T12:13:03;29.50;86.60
5055;DHT22;13829;48.990;8.346;2023-06-19T12:15:30;29.50;86.00
5055;DHT22;13829;48.990;8.346;2023-06-19T12:17:57;29.20;85.70
5055;DHT22;13829;48.990;8.346;2023-06-19T12:20:24;29.10;86.90
5055;DHT22;13829;48.990;8.346;2023-06-19T12:22:51;29.00;87.60
5055;DHT22;13829;48.990;8.346;2023-06-19T12:25:18;29.00;87.00
5055;DHT22;13829;48.990;8.346;2023-06-19T12:27:47;28.90;87.80
5055;DHT22;13829;48.990;8.346;2023-06-19T12:30:15;28.80;87.30
5055;DHT22;13829;48.990;8.346;2023-06-19T12:32:42;28.70;88.00
5055;DHT22;13829;48.990;8.346;2023-06-19T12:35:09;28.60;88.80
5055;DHT22;13829;48.990;8.346;2023-06-19T12:37:36;28.50;88.20
5055;DHT22;13829;48.990;8.346;2023-06-19T12:40:03;28.50;88.90
5055;DHT22;13829;48.990;8.346;2023-06-19T12:42:36;28.60;87.50
5055;DHT22;13829;48.990;8.346;2023-06-19T12:45:06;28.70;88.10
5055;DHT22;13829;48.990;8.346;2023-06-19T12:47:33;28.80;87.90
5055;DHT22;13829;48.990;8.346;2023-06-19T12:50:00;28.90;86.30
5055;DHT22;13829;48.990;8.346;2023-06-19T12:52:27;29.00;86.60
5055;DHT22;13829;48.990;8.346;2023-06-19T12:54:54;29.10;86.10
5055;DHT22;13829;48.990;8.346;2023-06-19T12:57:21;29.10;84.70
5055;DHT22;13829;48.990;8.346;2023-06-19T12:59:51;29.10;84.70
5055;DHT22;13829;48.990;8.346;2023-06-19T13:02:19;29.10;84.50
5055;DHT22;13829;48.990;8.346;2023-06-19T13:04:46;29.20;85.70
5055;DHT22;13829;48.990;8.346;2023-06-19T13:07:13;29.20;85.00
5055;DHT22;13829;48.990;8.346;2023-06-19T13:09:41;29.30;84.60
5055;DHT22;13829;48.990;8.346;2023-06-19T13:12:08;29.50;84.60
5055;DHT22;13829;48.990;8.346;2023-06-19T13:14:36;29.70;84.70
5055;DHT22;13829;48.990;8.346;2023-06-19T13:17:03;29.90;86.30
5055;DHT22;13829;48.990;8.346;2023-06-19T13:19:31;30.00;84.90
5055;DHT22;13829;48.990;8.346;2023-06-19T13:21:58;30.00;84.60
5055;DHT22;13829;48.990;8.346;2023-06-19T13:24:28;30.00;84.40
5055;DHT22;13829;48.990;8.346;2023-06-19T13:26:55;30.00;84.60
5055;DHT22;13829;48.990;8.346;2023-06-19T13:29:22;29.80;84.90
5055;DHT22;13829;48.990;8.346;2023-06-19T13:31:49;29.70;85.30
5055;DHT22;13829;48.990;8.346;2023-06-19T13:34:16;29.50;84.60
5055;DHT22;13829;48.990;8.346;2023-06-19T13:36:45;29.60;84.10
5055;DHT22;13829;48.990;8.346;2023-06-19T13:39:13;29.60;85.10
5055;DHT22;13829;48.990;8.346;2023-06-19T13:41:40;29.60;86.00
5055;DHT22;13829;48.990;8.346;2023-06-19T13:44:07;29.80;85.50
5055;DHT22;13829;48.990;8.346;2023-06-19T13:46:34;29.90;86.30
5055;DHT22;13829;48.990;8.346;2023-06-19T13:49:01;30.20;85.90
5055;DHT22;13829;48.990;8.346;2023-06-19T13:51:28;30.50;86.50
5055;DHT22;13829;48.990;8.346;2023-06-19T13:53:56;30.70;83.30
5055;DHT22;13829;48.990;8.346;2023-06-19T13:56:23;30.50;84.70
5055;DHT22;13829;48.990;8.346;2023-06-19T13:58:50;30.40;82.50
5055;DHT22;13829;48.990;8.346;2023-06-19T14:01:17;30.20;83.30
5055;DHT22;13829;48.990;8.346;2023-06-19T14:03:44;30.10;84.30
5055;DHT22;13829;48.990;8.346;2023-06-19T14:06:11;30.20;86.40
5055;DHT22;13829;48.990;8.346;2023-06-19T14:08:38;30.20;85.20
5055;DHT22;13829;48.990;8.346;2023-06-19T14:11:07;30.30;84.60
5055;DHT22;13829;48.990;8.346;2023-06-19T14:13:34;30.30;84.00
5055;DHT22;13829;48.990;8.346;2023-06-19T14:16:01;30.20;82.90
5055;DHT22;13829;48.990;8.346;2023-06-19T14:18:28;30.00;81.20
5055;DHT22;13829;48.990;8.346;2023-06-19T14:20:58;30.00;82.60
5055;DHT22;13829;48.990;8.346;2023-06-19T14:23:25;29.90;82.80
5055;DHT22;13829;48.990;8.346;2023-06-19T14:25:51;29.90;83.80
5055;DHT22;13829;48.990;8.346;2023-06-19T14:28:21;30.00;83.20
5055;DHT22;13829;48.990;8.346;2023-06-19T14:30:48;29.90;82.60
5055;DHT22;13829;48.990;8.346;2023-06-19T14:33:15;29.90;84.40
5055;DHT22;13829;48.990;8.346;2023-06-19T14:35:42;29.80;83.70
5055;DHT22;13829;48.990;8.346;2023-06-19T14:38:11;29.80;85.60
5055;DHT22;13829;48.990;8.346;2023-06-19T14:40:39;29.80;84.40
5055;DHT22;13829;48.990;8.346;2023-06-19T14:43:06;29.60;83.60
5055;DHT22;13829;48.990;8.346;2023-06-19T14:45:36;29.50;85.30
5055;DHT22;13829;48.990;8.346;2023-06-19T14:48:05;29.40;85.70
5055;DHT22;13829;48.990;8.346;2023-06-19T14:50:32;29.20;86.00
5055;DHT22;13829;48.990;8.346;2023-06-19T14:53:00;29.10;85.60
5055;DHT22;13829;48.990;8.346;2023-06-19T14:55:28;29.00;86.10
5055;DHT22;13829;48.990;8.346;2023-06-19T14:57:54;29.00;86.60
5055;DHT22;13829;48.990;8.346;2023-06-19T15:00:22;28.90;86.40
5055;DHT22;13829;48.990;8.346;2023-06-19T15:02:50;28.90;87.20
5055;DHT22;13829;48.990;8.346;2023-06-19T15:05:17;28.90;88.20
5055;DHT22;13829;48.990;8.346;2023-06-19T15:07:44;28.80;88.00
5055;DHT22;13829;48.990;8.346;2023-06-19T15:10:11;28.80;87.70
5055;DHT22;13829;48.990;8.346;2023-06-19T15:12:38;28.70;88.80
5055;DHT22;13829;48.990;8.346;2023-06-19T15:15:06;28.70;88.20
5055;DHT22;13829;48.990;8.346;2023-06-19T15:17:33;28.60;87.70
5055;DHT22;13829;48.990;8.346;2023-06-19T15:20:01;28.60;87.40
5055;DHT22;13829;48.990;8.346;2023-06-19T15:22:30;28.50;88.10
5055;DHT22;13829;48.990;8.346;2023-06-19T15:24:57;28.40;88.30
5055;DHT22;13829;48.990;8.346;2023-06-19T15:27:24;28.30;87.70
5055;DHT22;13829;48.990;8.346;2023-06-19T15:29:51;28.30;88.20
5055;DHT22;13829;48.990;8.346;2023-06-19T15:32:18;28.10;87.50
5055;DHT22;13829;48.990;8.346;2023-06-19T15:34:45;28.00;87.50
5055;DHT22;13829;48.990;8.346;2023-06-19T15:37:13;27.90;88.00
5055;DHT22;13829;48.990;8.346;2023-06-19T15:39:41;27.80;88.60
5055;DHT22;13829;48.990;8.346;2023-06-19T15:42:09;27.90;89.10
5055;DHT22;13829;48.990;8.346;2023-06-19T15:44:36;28.00;89.50
5055;DHT22;13829;48.990;8.346;2023-06-19T15:47:03;28.00;88.50
5055;DHT22;13829;48.990;8.346;2023-06-19T15:49:30;28.00;88.90